createdAt,value
2018-02-03T00:08:30.199Z,4.30
2018-02-03T00:18:38.304Z,4.10
2018-02-03T00:28:47.058Z,4.40
2018-02-03T00:38:55.175Z,4.03
2018-02-03T00:49:05.518Z,3.90
2018-02-03T00:59:13.746Z,3.80
2018-02-03T01:09:25.575Z,3.90
2018-02-03T01:19:36.404Z,3.63
2018-02-03T01:29:47.029Z,3.93
2018-02-03T01:39:55.758Z,3.43
2018-02-03T01:50:04.277Z,3.60
2018-02-03T02:00:15.657Z,4.07
2018-02-03T02:10:30.896Z,3.93
2018-02-03T02:20:45.123Z,3.40
2018-02-03T02:30:55.100Z,3.83
2018-02-03T02:41:03.250Z,4.80
2018-02-03T02:51:13.328Z,4.80
2018-02-03T03:01:23.162Z,4.33
2018-02-03T03:11:32.106Z,4.57
2018-02-03T03:21:40.286Z,4.43
2018-02-03T03:31:53.526Z,4.30
2018-02-03T03:42:03.995Z,4.47
2018-02-03T03:52:13.830Z,4.30
2018-02-03T04:02:22.909Z,4.37
2018-02-03T04:12:38.251Z,4.13
2018-02-03T04:22:48.831Z,4.33
2018-02-03T04:32:58.794Z,4.80
2018-02-03T04:43:08.649Z,4.37
2018-02-03T04:53:18.792Z,4.60
2018-02-03T05:03:30.902Z,5.27
2018-02-03T05:13:43.495Z,4.23
2018-02-03T05:23:53.452Z,4.37
2018-02-03T05:34:05.972Z,4.27
2018-02-03T05:44:15.925Z,4.50
2018-02-03T05:54:25.170Z,4.20
2018-02-03T06:04:35.498Z,4.00
2018-02-03T06:14:45.367Z,4.37
2018-02-03T06:24:55.401Z,4.20
2018-02-03T06:35:07.895Z,3.97
2018-02-03T06:45:17.800Z,3.67
2018-02-03T06:55:28.378Z,3.77
2018-02-03T07:05:38.267Z,3.80
2018-02-03T07:15:49.949Z,3.70
2018-02-03T07:26:02.013Z,4.27
2018-02-03T07:36:11.938Z,4.53
2018-02-03T07:46:21.646Z,4.10
2018-02-03T07:56:31.033Z,3.90
2018-02-03T08:06:44.894Z,3.90
2018-02-03T08:16:55.911Z,6.20
2018-02-03T08:27:06.547Z,5.87
2018-02-03T08:37:14.702Z,8.13
2018-02-03T08:47:24.146Z,8.03
2018-02-03T08:57:38.284Z,9.20
2018-02-03T09:07:46.803Z,7.90
2018-02-03T09:17:56.388Z,6.90
2018-02-03T09:28:05.647Z,6.70
2018-02-03T09:38:16.315Z,5.93
2018-02-03T09:48:35.044Z,5.87
2018-02-03T09:58:44.663Z,5.43
2018-02-03T10:08:53.609Z,5.73
2018-02-03T10:19:05.074Z,5.60
2018-02-03T10:29:14.842Z,5.83
2018-02-03T10:39:26.674Z,4.70
2018-02-03T10:49:37.077Z,4.67
2018-02-03T10:59:45.849Z,4.77
2018-02-03T11:09:56.818Z,4.57
2018-02-03T11:20:08.571Z,4.37
2018-02-03T11:30:17.338Z,4.50
2018-02-03T11:40:26.529Z,4.63
2018-02-03T11:50:36.299Z,4.57
2018-02-03T12:00:47.132Z,4.30
2018-02-03T12:10:58.118Z,3.90
2018-02-03T12:21:14.874Z,4.07
2018-02-03T12:31:24.218Z,4.27
2018-02-03T12:41:36.204Z,3.90
2018-02-03T12:51:47.465Z,3.90
2018-02-03T13:01:58.062Z,3.67
2018-02-03T13:12:08.950Z,4.13
2018-02-03T13:22:22.370Z,3.90
2018-02-03T13:32:35.967Z,3.87
2018-02-03T13:42:47.365Z,3.93
2018-02-03T13:53:03.060Z,3.93
2018-02-03T14:03:21.110Z,3.60
2018-02-03T14:13:31.237Z,3.80
2018-02-03T14:23:43.364Z,3.63
2018-02-03T14:33:52.189Z,3.70
2018-02-03T14:44:07.165Z,4.20
2018-02-03T14:54:21.402Z,3.50
2018-02-03T15:04:31.234Z,4.20
2018-02-03T15:14:47.140Z,4.20
2018-02-03T15:24:57.568Z,4.00
2018-02-03T15:35:08.195Z,3.80
2018-02-03T15:45:19.548Z,4.17
2018-02-03T15:55:32.281Z,3.60
2018-02-03T16:05:44.668Z,3.70
2018-02-03T16:15:58.606Z,3.63
2018-02-03T16:26:11.809Z,3.27
2018-02-03T16:36:22.800Z,3.43
2018-02-03T16:46:34.024Z,3.67
2018-02-03T16:56:48.305Z,3.47
2018-02-03T17:06:57.819Z,3.60
2018-02-03T17:17:07.127Z,3.40
2018-02-03T17:27:15.655Z,3.40
2018-02-03T17:37:34.154Z,3.43
2018-02-03T17:47:44.075Z,3.43
2018-02-03T17:57:53.080Z,3.30
2018-02-03T18:08:04.034Z,3.50
2018-02-03T18:18:13.080Z,3.40
2018-02-03T18:28:26.428Z,3.30
2018-02-03T18:38:34.251Z,3.50
2018-02-03T18:58:57.013Z,3.20
2018-02-03T19:09:09.794Z,3.40
2018-02-03T19:19:22.998Z,3.87
2018-02-03T19:29:35.848Z,3.40
2018-02-03T19:39:44.447Z,3.63
2018-02-03T19:49:53.812Z,3.50
2018-02-03T20:00:02.770Z,3.30
2018-02-03T20:10:14.004Z,3.43
2018-02-03T20:20:29.222Z,3.17
2018-02-03T20:30:37.435Z,3.73
2018-02-03T20:40:50.860Z,3.83
2018-02-03T20:50:59.901Z,3.50
2018-02-03T21:01:11.368Z,3.70
2018-02-03T21:11:20.099Z,3.80
2018-02-03T21:21:35.654Z,3.90
2018-02-03T21:31:45.301Z,3.73
2018-02-03T21:41:54.719Z,3.53
2018-02-03T21:52:09.860Z,3.70
2018-02-03T22:02:21.550Z,4.23
2018-02-03T22:22:54.239Z,4.23
2018-02-03T22:33:03.844Z,3.83
2018-02-03T22:43:14.054Z,3.93
2018-02-03T22:53:24.244Z,4.20
2018-02-03T23:03:35.399Z,5.07
2018-02-03T23:13:47.463Z,4.90
2018-02-03T23:24:05.712Z,4.90
2018-02-03T23:34:14.463Z,4.80
2018-02-03T23:44:24.999Z,5.07
2018-02-03T23:54:43.405Z,5.60
